Карточка аэропорта UNNT

Внимание!
Информация на этой странице в стадии наполнения.
Если вы не увидели какой-то информации, или заметили неточность - пожалуйста сообщите нам!
Спасибо!
Команда RU-STAFF
Название аэропортаТолмачево
Название аэропорта (англ.)Tolmachevo
Превышение367 ft. (111.9 m.)
Координаты55°0.77999999999989', 82°38.178'
Высота перехода6000ft
Эшелон переходаQNH>=1013hPa:FL70; QNH<1013hPa:FL80; QNH<977hPa:FL90
Коды ответчика5201-5227
Зона ОрВДНовосибирск РПИ (UNNT)
Данные METARUNNT 251830Z 03001MPS 8000 -SN OVC017 M18/M20 Q1033 R25/490140 R16/////// NOSIG RMK QFE764/1019
Проноз погоды (TAF)UNNT 251700Z 2518/2618 35003MPS 6000 -SN BKN040 TEMPO 2518/2604 1500 SN BR BKN011
NOTAMshow/hide NOTAM
AWOS   TABLE

Информация о ВПП

ВПП Длина ВПП (м.) Покрытие Курс ВПП Частота ILS
073597Асфальтобетон72110.1
253597Асфальтобетон252108.5
163602Цементобетон161109.7
343602Цементобетон341111.1

Диспетчерские позиции

Позывной Наименование органа УВД Частота
UNNT_TWRНовосибирск-Вышка118.5
UNNT_GNDНовосибирск-Руление121.7
UNNT_R_APPНовосибирск-Круг122.0
UNNT_APPНовосибирск-Подход127.5
UNNT_DEL Новосибирск-Деливери135.4



Спутниковое изображение